Great Hebei — VRFU6 — position and weather

sailwx.info

Track history (hours):
 
Tides and Currents Weather Stations Pressure Air Temp Water Temp Dewpoint Dewpoint Depression Visibility Wind Speed Wind Dir Waves Ship Positions

Great Hebei

Last reported at 2016-Feb-01 17:10 UTC. Time now 2016-Feb-12 01:18 UTC.
Position N 48°11' W 125°52'.
Warning: this ship's position is 10 days out of date.

Length 295 m; draft 17.8 m.

Type: Cargo ship. MMSI: 477617100.

Date/timePositionNaut miles runAvg speedWind from/ knotsBaromVisibWave heightAir tempDewpointWater temp
2016-Feb-01 17:10N 48°11' W 125°52'4 7.3
2016-Feb-01 16:33N 48°13' W 125°46'7 7.3
2016-Feb-01 15:33N 48°18' W 125°38'14 7.0
2016-Feb-01 13:30N 48°26' W 125°20'9 7.1
2016-Feb-01 12:13N 48°31' W 125°09'37 7.3
2016-Feb-01 07:09N 48°23' W 124°15'5 8.0
2016-Feb-01 06:33N 48°21' W 124°08'8 7.8
2016-Feb-01 05:33N 48°18' W 123°57'8 8.0
2016-Feb-01 04:33N 48°16' W 123°45'8 7.7
2016-Feb-01 03:33N 48°15' W 123°34'8 7.8
2016-Feb-01 02:33N 48°21' W 123°26'1010.0
2016-Feb-01 01:33N 48°25' W 123°12'1413.8
2016-Feb-01 00:33N 48°39' W 123°15'1212.1
2016-Jan-31 23:33N 48°47' W 123°01'1212.4
2016-Jan-31 22:33N 48°59' W 123°08'3 2.5
2016-Jan-31 21:32N 49°01' W 123°10'0 0.0
2016-Jan-31 20:32N 49°01' W 123°10'0 0.0
2016-Jan-31 19:32N 49°01' W 123°10'0 0.0
2016-Jan-31 18:32N 49°01' W 123°10'0 0.0
2016-Jan-31 17:32N 49°01' W 123°10'0 0.0
2016-Jan-31 16:32N 49°01' W 123°10'0 0.0
2016-Jan-31 15:32N 49°01' W 123°10'0 0.0
2016-Jan-31 14:32N 49°01' W 123°10'0 0.0
2016-Jan-31 13:32N 49°01' W 123°10'0 0.0
2016-Jan-31 12:32N 49°01' W 123°10'0 0.0
2016-Jan-31 11:32N 49°01' W 123°10'0 0.0
2016-Jan-31 10:32N 49°01' W 123°10'0 0.0
2016-Jan-31 09:32N 49°01' W 123°10'0 0.0
2016-Jan-31 08:32N 49°01' W 123°10'0 0.0
2016-Jan-31 07:32N 49°01' W 123°10'0 0.0
2016-Jan-31 06:32N 49°01' W 123°10'0 0.0
2016-Jan-31 05:32N 49°01' W 123°10'0 0.0
2016-Jan-31 04:32N 49°01' W 123°10'0 0.0
2016-Jan-31 03:32N 49°01' W 123°10'0 0.0
2016-Jan-31 02:32N 49°01' W 123°10'0 0.0
2016-Jan-31 01:32N 49°01' W 123°10'0 0.0
2016-Jan-31 00:32N 49°01' W 123°10'0 0.0
2016-Jan-30 23:32N 49°01' W 123°10'0 0.0
2016-Jan-30 22:32N 49°01' W 123°10'0 0.0
2016-Jan-30 21:32N 49°01' W 123°10'0 0.0
2016-Jan-30 20:32N 49°01' W 123°10'0 0.0
2016-Jan-30 19:32N 49°01' W 123°10'0 0.0
2016-Jan-30 18:32N 49°01' W 123°10'0 0.0
2016-Jan-30 17:32N 49°01' W 123°10'0 0.0
2016-Jan-30 16:32N 49°01' W 123°10'0 0.0
2016-Jan-30 15:32N 49°01' W 123°10'0 0.0
2016-Jan-30 14:32N 49°01' W 123°10'0 0.0
2016-Jan-30 13:32N 49°01' W 123°10'0 0.0
2016-Jan-30 12:32N 49°01' W 123°10'0 0.0
2016-Jan-30 11:32N 49°01' W 123°10'0 0.0
2016-Jan-30 10:32N 49°01' W 123°10'0 0.0
2016-Jan-30 09:32N 49°01' W 123°10'0 0.0
2016-Jan-30 08:32N 49°01' W 123°10'0 0.0
2016-Jan-30 07:32N 49°01' W 123°10'0 0.0
2016-Jan-30 06:32N 49°01' W 123°10'0 0.0
2016-Jan-30 05:32N 49°01' W 123°10'0 0.0
2016-Jan-30 04:32N 49°01' W 123°10'0 0.0
2016-Jan-30 03:32N 49°01' W 123°10'0 0.0
2016-Jan-30 02:32N 49°01' W 123°10'0 0.0
2016-Jan-30 01:32N 49°01' W 123°10'0 0.0
2016-Jan-30 00:32N 49°01' W 123°10'0 0.0
2016-Jan-29 23:32N 49°01' W 123°10'0 0.0
2016-Jan-29 22:32N 49°01' W 123°10'0 0.0
2016-Jan-29 21:32N 49°01' W 123°10'0 0.0
2016-Jan-29 20:32N 49°01' W 123°10'0 0.0
2016-Jan-29 19:32N 49°01' W 123°10'0 0.0
2016-Jan-29 18:32N 49°01' W 123°10'0 0.0
2016-Jan-29 17:32N 49°01' W 123°10'0 0.0
2016-Jan-29 16:32N 49°01' W 123°10'0 0.0
2016-Jan-29 15:32N 49°01' W 123°10'0 0.0
2016-Jan-29 14:32N 49°01' W 123°10'0 0.0
2016-Jan-29 13:32N 49°01' W 123°10'0 0.0
2016-Jan-29 12:32N 49°01' W 123°10'0 0.0
2016-Jan-29 11:32N 49°01' W 123°10'0 0.0
2016-Jan-29 10:33N 49°01' W 123°10'0 0.0
2016-Jan-29 09:32N 49°01' W 123°10'0 0.0
2016-Jan-29 08:32N 49°01' W 123°10'0 0.0
2016-Jan-29 07:29N 49°01' W 123°10'0 0.0
2016-Jan-29 06:32N 49°01' W 123°10'0 0.0
2016-Jan-29 05:32N 49°01' W 123°10'0 0.0
2016-Jan-29 04:32N 49°01' W 123°10'0 0.0
2016-Jan-29 03:32N 49°01' W 123°10'0 0.0
2016-Jan-29 02:32N 49°01' W 123°10'0 0.0
2016-Jan-29 01:32N 49°01' W 123°10'0 0.0
2016-Jan-29 00:32N 49°01' W 123°10'0 0.0
2016-Jan-28 23:32N 49°01' W 123°10'0 0.0
2016-Jan-28 22:32N 49°01' W 123°10'0 0.0
2016-Jan-28 21:32N 49°01' W 123°10'0 0.0
2016-Jan-28 20:32N 49°01' W 123°10'0 0.0
2016-Jan-28 19:32N 49°01' W 123°10'0 0.0
2016-Jan-28 18:32N 49°01' W 123°10'0 0.0
2016-Jan-28 17:32N 49°01' W 123°10'0 0.0
2016-Jan-28 16:32N 49°01' W 123°10'0 0.0
2016-Jan-28 15:32N 49°01' W 123°10'0 0.0
2016-Jan-28 14:32N 49°01' W 123°10'0 0.0
2016-Jan-28 13:32N 49°01' W 123°10'0 0.0
2016-Jan-28 12:32N 49°01' W 123°10'0 0.0
2016-Jan-28 11:32N 49°01' W 123°10'0 0.0
2016-Jan-28 10:32N 49°01' W 123°10'0 0.0
2016-Jan-28 09:32N 49°01' W 123°10'0 0.0
2016-Jan-28 08:32N 49°01' W 123°10'0 0.0
2016-Jan-28 07:32N 49°01' W 123°10'0 0.0
2016-Jan-28 06:32N 49°01' W 123°10'0 0.0
2016-Jan-28 05:29N 49°01' W 123°10'0 0.0
2016-Jan-28 04:32N 49°01' W 123°10'0 0.0
2016-Jan-28 03:32N 49°01' W 123°10'0 0.0
2016-Jan-28 02:32N 49°01' W 123°10'0 0.0
2016-Jan-28 01:32N 49°01' W 123°10'0 0.0
2016-Jan-28 00:29N 49°01' W 123°10'0 0.0
2016-Jan-27 23:32N 49°01' W 123°10'0 0.0
2016-Jan-27 22:32N 49°01' W 123°10'0 0.0
2016-Jan-27 21:32N 49°01' W 123°10'0 0.0
2016-Jan-27 20:32N 49°01' W 123°10'0 0.0
2016-Jan-27 19:32N 49°01' W 123°10'0 0.0
2016-Jan-27 18:32N 49°01' W 123°10'0 0.0
2016-Jan-27 17:32N 49°01' W 123°10'0 0.0
2016-Jan-27 16:32N 49°01' W 123°10'0 0.0
2016-Jan-27 15:32N 49°01' W 123°10'0 0.0
2016-Jan-27 14:32N 49°01' W 123°10'0 0.0
2016-Jan-27 13:32N 49°01' W 123°10'0 0.0
2016-Jan-27 12:32N 49°01' W 123°10'0 0.0
2016-Jan-27 11:32N 49°01' W 123°10'0 0.0
2016-Jan-27 10:32N 49°01' W 123°10'0 0.0
2016-Jan-27 09:32N 49°01' W 123°10'0 0.0
2016-Jan-27 08:32N 49°01' W 123°10'0 0.0
2016-Jan-27 07:32N 49°01' W 123°10'1 0.8
2016-Jan-27 06:33N 49°00' W 123°11'1 0.9
2016-Jan-27 05:33N 49°00' W 123°12'2 1.7
2016-Jan-27 04:33N 49°00' W 123°15'8 8.4
2016-Jan-27 03:33N 49°06' W 123°24'1413.6
2016-Jan-27 02:33N 49°18' W 123°14'2 1.9
2016-Jan-27 01:32N 49°18' W 123°11'0 0.2
2016-Jan-27 00:32N 49°18' W 123°12'0 0.0
2016-Jan-26 23:32N 49°18' W 123°12'0 0.1
2016-Jan-26 22:32N 49°18' W 123°12'0 0.0
2016-Jan-26 21:32N 49°18' W 123°12'0 0.1
2016-Jan-26 20:32N 49°18' W 123°12'0 0.0
2016-Jan-26 19:32N 49°18' W 123°12'0 0.1
2016-Jan-26 18:32N 49°18' W 123°12'0 0.0
2016-Jan-26 17:32N 49°18' W 123°12'0 0.0
2016-Jan-26 16:32N 49°18' W 123°12'0 0.0
2016-Jan-26 15:32N 49°18' W 123°12'0 0.1
2016-Jan-26 14:32N 49°18' W 123°11'0 0.2
2016-Jan-26 13:32N 49°18' W 123°11'0 0.1
2016-Jan-26 12:32N 49°18' W 123°11'0 0.2
2016-Jan-26 11:32N 49°18' W 123°11'0 0.0
2016-Jan-26 10:29N 49°18' W 123°11'0 0.2
2016-Jan-26 09:32N 49°18' W 123°12'0 0.0
2016-Jan-26 08:32N 49°18' W 123°12'0 0.0
2016-Jan-26 07:32N 49°18' W 123°12'0 0.1
2016-Jan-26 06:32N 49°18' W 123°12'0 0.0
2016-Jan-26 05:32N 49°18' W 123°12'0 0.1
2016-Jan-26 04:32N 49°18' W 123°12'0 0.0
2016-Jan-26 03:32N 49°18' W 123°12'0 0.1
2016-Jan-26 02:32N 49°18' W 123°11'0 0.1
2016-Jan-26 01:32N 49°18' W 123°11'0 0.0
2016-Jan-26 00:32N 49°18' W 123°11'0 0.2
2016-Jan-25 23:29N 49°18' W 123°12'0 0.2
2016-Jan-25 22:32N 49°18' W 123°12'0 0.1
2016-Jan-25 21:32N 49°18' W 123°11'0 0.0
2016-Jan-25 20:32N 49°18' W 123°11'0 0.1
2016-Jan-25 19:32N 49°18' W 123°12'0 0.1
2016-Jan-25 18:32N 49°18' W 123°11'0 0.0
2016-Jan-25 17:32N 49°18' W 123°11'0 0.0
2016-Jan-25 16:32N 49°18' W 123°11'0 0.1
2016-Jan-25 15:32N 49°19' W 123°11'0 0.1
2016-Jan-25 14:32N 49°18' W 123°11'0 0.0
2016-Jan-25 13:32N 49°18' W 123°11'0 0.1
2016-Jan-25 12:32N 49°18' W 123°11'0 0.0
2016-Jan-25 11:32N 49°18' W 123°11'0 0.1
2016-Jan-25 10:32N 49°18' W 123°11'0 0.1
2016-Jan-25 09:32N 49°18' W 123°11'0 0.1
2016-Jan-25 08:32N 49°18' W 123°11'0 0.1
2016-Jan-25 07:32N 49°18' W 123°11'0 0.0
2016-Jan-25 06:29N 49°18' W 123°11'0 0.0
2016-Jan-25 05:32N 49°18' W 123°11'0 0.1
2016-Jan-25 04:32N 49°18' W 123°12'0 0.0
2016-Jan-25 03:32N 49°18' W 123°11'0 0.2
2016-Jan-25 02:32N 49°18' W 123°11'0 0.1
2016-Jan-25 01:32N 49°18' W 123°11'0 0.0
2016-Jan-25 00:32N 49°18' W 123°11'0 0.1
2016-Jan-24 23:32N 49°19' W 123°11'0 0.2
2016-Jan-24 22:32N 49°18' W 123°12'0 0.1
2016-Jan-24 21:32N 49°18' W 123°12'0 0.0
2016-Jan-24 20:32N 49°18' W 123°12'0 0.0
2016-Jan-24 19:32N 49°18' W 123°12'0 0.1
2016-Jan-24 18:29N 49°18' W 123°12'0 0.1
2016-Jan-24 17:32N 49°18' W 123°12'0 0.1
2016-Jan-24 16:32N 49°18' W 123°11'0 0.0
2016-Jan-24 15:32N 49°18' W 123°11'0 0.1
2016-Jan-24 14:32N 49°19' W 123°11'0 0.2
2016-Jan-24 13:32N 49°18' W 123°11'0 0.0
2016-Jan-24 12:32N 49°18' W 123°11'0 0.0
2016-Jan-24 11:32N 49°18' W 123°11'0 0.0
2016-Jan-24 10:32N 49°18' W 123°11'0 0.0
2016-Jan-24 09:32N 49°18' W 123°11'0 0.1
2016-Jan-24 08:32N 49°18' W 123°11'0 0.2
2016-Jan-24 07:32N 49°18' W 123°12'0 0.1
2016-Jan-24 06:32N 49°18' W 123°12'0 0.1
2016-Jan-24 05:32N 49°18' W 123°12'0 0.1
2016-Jan-24 04:32N 49°18' W 123°12'0 0.1
2016-Jan-24 03:32N 49°18' W 123°11'0 0.2
2016-Jan-24 02:32N 49°18' W 123°11'0 0.0
2016-Jan-24 01:32N 49°18' W 123°11'0 0.0
2016-Jan-24 00:32N 49°18' W 123°11'0 0.1
2016-Jan-23 23:32N 49°18' W 123°11'0 0.0
2016-Jan-23 22:32N 49°18' W 123°11'0 0.2
2016-Jan-23 21:32N 49°19' W 123°11'0 0.2
2016-Jan-23 20:32N 49°18' W 123°12'0 0.0
2016-Jan-23 19:32N 49°18' W 123°12'0 0.0
2016-Jan-23 18:32N 49°18' W 123°12'0 0.1
2016-Jan-23 17:32N 49°18' W 123°12'0 0.1
2016-Jan-23 16:32N 49°18' W 123°12'0 0.0
2016-Jan-23 15:32N 49°18' W 123°12'0 0.1
2016-Jan-23 14:29N 49°19' W 123°11'0 0.1
2016-Jan-23 13:32N 49°19' W 123°11'0 0.0
2016-Jan-23 12:32N 49°18' W 123°11'0 0.1
2016-Jan-23 11:32N 49°18' W 123°11'0 0.0
2016-Jan-23 10:32N 49°18' W 123°11'0 0.0
2016-Jan-23 09:32N 49°18' W 123°11'0 0.0
2016-Jan-23 08:32N 49°18' W 123°11'0 0.3
2016-Jan-23 07:32N 49°19' W 123°11'0 0.2
2016-Jan-23 06:32N 49°18' W 123°12'0 0.0
2016-Jan-23 05:32N 49°18' W 123°12'0 0.1
2016-Jan-23 04:32N 49°18' W 123°12'0 0.0
2016-Jan-23 03:32N 49°18' W 123°12'0 0.0
2016-Jan-23 02:32N 49°18' W 123°12'0 0.1
2016-Jan-23 01:32N 49°18' W 123°12'0 0.1
2016-Jan-23 00:32N 49°18' W 123°12'0 0.1
2016-Jan-22 23:32N 49°18' W 123°11'0 0.1
2016-Jan-22 22:32N 49°18' W 123°11'0 0.1
2016-Jan-22 21:32N 49°18' W 123°11'0 0.0
2016-Jan-22 20:32N 49°18' W 123°11'3 3.1
2016-Jan-22 19:34N 49°18' W 123°07'2 2.0
2016-Jan-22 18:32N 49°18' W 123°03'0 0.0
2016-Jan-22 17:32N 49°18' W 123°03'  
Track history (hours):
 
Tides and Currents Weather Stations Pressure Air Temp Water Temp Dewpoint Dewpoint Depression Visibility Wind Speed Wind Dir Waves Ship Positions

Great Hebei

Last reported at 2016-Feb-01 17:10 UTC. Time now 2016-Feb-12 01:18 UTC.
Position N 48°11' W 125°52'.
Warning: this ship's position is 10 days out of date.

Length 295 m; draft 17.8 m.

Type: Cargo ship. MMSI: 477617100.

Date/timePositionNaut miles runAvg speedWind from/ knotsBaromVisibWave heightAir tempDewpointWater temp
2016-Feb-01 17:10N 48°11' W 125°52'4 7.3
2016-Feb-01 16:33N 48°13' W 125°46'7 7.3
2016-Feb-01 15:33N 48°18' W 125°38'14 7.0
2016-Feb-01 13:30N 48°26' W 125°20'9 7.1
2016-Feb-01 12:13N 48°31' W 125°09'37 7.3
2016-Feb-01 07:09N 48°23' W 124°15'5 8.0
2016-Feb-01 06:33N 48°21' W 124°08'8 7.8
2016-Feb-01 05:33N 48°18' W 123°57'8 8.0
2016-Feb-01 04:33N 48°16' W 123°45'8 7.7
2016-Feb-01 03:33N 48°15' W 123°34'8 7.8
2016-Feb-01 02:33N 48°21' W 123°26'1010.0
2016-Feb-01 01:33N 48°25' W 123°12'1413.8
2016-Feb-01 00:33N 48°39' W 123°15'1212.1
2016-Jan-31 23:33N 48°47' W 123°01'1212.4
2016-Jan-31 22:33N 48°59' W 123°08'3 2.5
2016-Jan-31 21:32N 49°01' W 123°10'0 0.0
2016-Jan-31 20:32N 49°01' W 123°10'0 0.0
2016-Jan-31 19:32N 49°01' W 123°10'0 0.0
2016-Jan-31 18:32N 49°01' W 123°10'0 0.0
2016-Jan-31 17:32N 49°01' W 123°10'0 0.0
2016-Jan-31 16:32N 49°01' W 123°10'0 0.0
2016-Jan-31 15:32N 49°01' W 123°10'0 0.0
2016-Jan-31 14:32N 49°01' W 123°10'0 0.0
2016-Jan-31 13:32N 49°01' W 123°10'0 0.0
2016-Jan-31 12:32N 49°01' W 123°10'0 0.0
2016-Jan-31 11:32N 49°01' W 123°10'0 0.0
2016-Jan-31 10:32N 49°01' W 123°10'0 0.0
2016-Jan-31 09:32N 49°01' W 123°10'0 0.0
2016-Jan-31 08:32N 49°01' W 123°10'0 0.0
2016-Jan-31 07:32N 49°01' W 123°10'0 0.0
2016-Jan-31 06:32N 49°01' W 123°10'0 0.0
2016-Jan-31 05:32N 49°01' W 123°10'0 0.0
2016-Jan-31 04:32N 49°01' W 123°10'0 0.0
2016-Jan-31 03:32N 49°01' W 123°10'0 0.0
2016-Jan-31 02:32N 49°01' W 123°10'0 0.0
2016-Jan-31 01:32N 49°01' W 123°10'0 0.0
2016-Jan-31 00:32N 49°01' W 123°10'0 0.0
2016-Jan-30 23:32N 49°01' W 123°10'0 0.0
2016-Jan-30 22:32N 49°01' W 123°10'0 0.0
2016-Jan-30 21:32N 49°01' W 123°10'0 0.0
2016-Jan-30 20:32N 49°01' W 123°10'0 0.0
2016-Jan-30 19:32N 49°01' W 123°10'0 0.0
2016-Jan-30 18:32N 49°01' W 123°10'0 0.0
2016-Jan-30 17:32N 49°01' W 123°10'0 0.0
2016-Jan-30 16:32N 49°01' W 123°10'0 0.0
2016-Jan-30 15:32N 49°01' W 123°10'0 0.0
2016-Jan-30 14:32N 49°01' W 123°10'0 0.0
2016-Jan-30 13:32N 49°01' W 123°10'0 0.0
2016-Jan-30 12:32N 49°01' W 123°10'0 0.0
2016-Jan-30 11:32N 49°01' W 123°10'0 0.0
2016-Jan-30 10:32N 49°01' W 123°10'0 0.0
2016-Jan-30 09:32N 49°01' W 123°10'0 0.0
2016-Jan-30 08:32N 49°01' W 123°10'0 0.0
2016-Jan-30 07:32N 49°01' W 123°10'0 0.0
2016-Jan-30 06:32N 49°01' W 123°10'0 0.0
2016-Jan-30 05:32N 49°01' W 123°10'0 0.0
2016-Jan-30 04:32N 49°01' W 123°10'0 0.0
2016-Jan-30 03:32N 49°01' W 123°10'0 0.0
2016-Jan-30 02:32N 49°01' W 123°10'0 0.0
2016-Jan-30 01:32N 49°01' W 123°10'0 0.0
2016-Jan-30 00:32N 49°01' W 123°10'0 0.0
2016-Jan-29 23:32N 49°01' W 123°10'0 0.0
2016-Jan-29 22:32N 49°01' W 123°10'0 0.0
2016-Jan-29 21:32N 49°01' W 123°10'0 0.0
2016-Jan-29 20:32N 49°01' W 123°10'0 0.0
2016-Jan-29 19:32N 49°01' W 123°10'0 0.0
2016-Jan-29 18:32N 49°01' W 123°10'0 0.0
2016-Jan-29 17:32N 49°01' W 123°10'0 0.0
2016-Jan-29 16:32N 49°01' W 123°10'0 0.0
2016-Jan-29 15:32N 49°01' W 123°10'0 0.0
2016-Jan-29 14:32N 49°01' W 123°10'0 0.0
2016-Jan-29 13:32N 49°01' W 123°10'0 0.0
2016-Jan-29 12:32N 49°01' W 123°10'0 0.0
2016-Jan-29 11:32N 49°01' W 123°10'0 0.0
2016-Jan-29 10:33N 49°01' W 123°10'0 0.0
2016-Jan-29 09:32N 49°01' W 123°10'0 0.0
2016-Jan-29 08:32N 49°01' W 123°10'0 0.0
2016-Jan-29 07:29N 49°01' W 123°10'0 0.0
2016-Jan-29 06:32N 49°01' W 123°10'0 0.0
2016-Jan-29 05:32N 49°01' W 123°10'0 0.0
2016-Jan-29 04:32N 49°01' W 123°10'0 0.0
2016-Jan-29 03:32N 49°01' W 123°10'0 0.0
2016-Jan-29 02:32N 49°01' W 123°10'0 0.0
2016-Jan-29 01:32N 49°01' W 123°10'0 0.0
2016-Jan-29 00:32N 49°01' W 123°10'0 0.0
2016-Jan-28 23:32N 49°01' W 123°10'0 0.0
2016-Jan-28 22:32N 49°01' W 123°10'0 0.0
2016-Jan-28 21:32N 49°01' W 123°10'0 0.0
2016-Jan-28 20:32N 49°01' W 123°10'0 0.0
2016-Jan-28 19:32N 49°01' W 123°10'0 0.0
2016-Jan-28 18:32N 49°01' W 123°10'0 0.0
2016-Jan-28 17:32N 49°01' W 123°10'0 0.0
2016-Jan-28 16:32N 49°01' W 123°10'0 0.0
2016-Jan-28 15:32N 49°01' W 123°10'0 0.0
2016-Jan-28 14:32N 49°01' W 123°10'0 0.0
2016-Jan-28 13:32N 49°01' W 123°10'0 0.0
2016-Jan-28 12:32N 49°01' W 123°10'0 0.0
2016-Jan-28 11:32N 49°01' W 123°10'0 0.0
2016-Jan-28 10:32N 49°01' W 123°10'0 0.0
2016-Jan-28 09:32N 49°01' W 123°10'0 0.0
2016-Jan-28 08:32N 49°01' W 123°10'0 0.0
2016-Jan-28 07:32N 49°01' W 123°10'0 0.0
2016-Jan-28 06:32N 49°01' W 123°10'0 0.0
2016-Jan-28 05:29N 49°01' W 123°10'0 0.0
2016-Jan-28 04:32N 49°01' W 123°10'0 0.0
2016-Jan-28 03:32N 49°01' W 123°10'0 0.0
2016-Jan-28 02:32N 49°01' W 123°10'0 0.0
2016-Jan-28 01:32N 49°01' W 123°10'0 0.0
2016-Jan-28 00:29N 49°01' W 123°10'0 0.0
2016-Jan-27 23:32N 49°01' W 123°10'0 0.0
2016-Jan-27 22:32N 49°01' W 123°10'0 0.0
2016-Jan-27 21:32N 49°01' W 123°10'0 0.0
2016-Jan-27 20:32N 49°01' W 123°10'0 0.0
2016-Jan-27 19:32N 49°01' W 123°10'0 0.0
2016-Jan-27 18:32N 49°01' W 123°10'0 0.0
2016-Jan-27 17:32N 49°01' W 123°10'0 0.0
2016-Jan-27 16:32N 49°01' W 123°10'0 0.0
2016-Jan-27 15:32N 49°01' W 123°10'0 0.0
2016-Jan-27 14:32N 49°01' W 123°10'0 0.0
2016-Jan-27 13:32N 49°01' W 123°10'0 0.0
2016-Jan-27 12:32N 49°01' W 123°10'0 0.0
2016-Jan-27 11:32N 49°01' W 123°10'0 0.0
2016-Jan-27 10:32N 49°01' W 123°10'0 0.0
2016-Jan-27 09:32N 49°01' W 123°10'0 0.0
2016-Jan-27 08:32N 49°01' W 123°10'0 0.0
2016-Jan-27 07:32N 49°01' W 123°10'1 0.8
2016-Jan-27 06:33N 49°00' W 123°11'1 0.9
2016-Jan-27 05:33N 49°00' W 123°12'2 1.7
2016-Jan-27 04:33N 49°00' W 123°15'8 8.4
2016-Jan-27 03:33N 49°06' W 123°24'1413.6
2016-Jan-27 02:33N 49°18' W 123°14'2 1.9
2016-Jan-27 01:32N 49°18' W 123°11'0 0.2
2016-Jan-27 00:32N 49°18' W 123°12'0 0.0
2016-Jan-26 23:32N 49°18' W 123°12'0 0.1
2016-Jan-26 22:32N 49°18' W 123°12'0 0.0
2016-Jan-26 21:32N 49°18' W 123°12'0 0.1
2016-Jan-26 20:32N 49°18' W 123°12'0 0.0
2016-Jan-26 19:32N 49°18' W 123°12'0 0.1
2016-Jan-26 18:32N 49°18' W 123°12'0 0.0
2016-Jan-26 17:32N 49°18' W 123°12'0 0.0
2016-Jan-26 16:32N 49°18' W 123°12'0 0.0
2016-Jan-26 15:32N 49°18' W 123°12'0 0.1
2016-Jan-26 14:32N 49°18' W 123°11'0 0.2
2016-Jan-26 13:32N 49°18' W 123°11'0 0.1
2016-Jan-26 12:32N 49°18' W 123°11'0 0.2
2016-Jan-26 11:32N 49°18' W 123°11'0 0.0
2016-Jan-26 10:29N 49°18' W 123°11'0 0.2
2016-Jan-26 09:32N 49°18' W 123°12'0 0.0
2016-Jan-26 08:32N 49°18' W 123°12'0 0.0
2016-Jan-26 07:32N 49°18' W 123°12'0 0.1
2016-Jan-26 06:32N 49°18' W 123°12'0 0.0
2016-Jan-26 05:32N 49°18' W 123°12'0 0.1
2016-Jan-26 04:32N 49°18' W 123°12'0 0.0
2016-Jan-26 03:32N 49°18' W 123°12'0 0.1
2016-Jan-26 02:32N 49°18' W 123°11'0 0.1
2016-Jan-26 01:32N 49°18' W 123°11'0 0.0
2016-Jan-26 00:32N 49°18' W 123°11'0 0.2
2016-Jan-25 23:29N 49°18' W 123°12'0 0.2
2016-Jan-25 22:32N 49°18' W 123°12'0 0.1
2016-Jan-25 21:32N 49°18' W 123°11'0 0.0
2016-Jan-25 20:32N 49°18' W 123°11'0 0.1
2016-Jan-25 19:32N 49°18' W 123°12'0 0.1
2016-Jan-25 18:32N 49°18' W 123°11'0 0.0
2016-Jan-25 17:32N 49°18' W 123°11'0 0.0
2016-Jan-25 16:32N 49°18' W 123°11'0 0.1
2016-Jan-25 15:32N 49°19' W 123°11'0 0.1
2016-Jan-25 14:32N 49°18' W 123°11'0 0.0
2016-Jan-25 13:32N 49°18' W 123°11'0 0.1
2016-Jan-25 12:32N 49°18' W 123°11'0 0.0
2016-Jan-25 11:32N 49°18' W 123°11'0 0.1
2016-Jan-25 10:32N 49°18' W 123°11'0 0.1
2016-Jan-25 09:32N 49°18' W 123°11'0 0.1
2016-Jan-25 08:32N 49°18' W 123°11'0 0.1
2016-Jan-25 07:32N 49°18' W 123°11'0 0.0
2016-Jan-25 06:29N 49°18' W 123°11'0 0.0
2016-Jan-25 05:32N 49°18' W 123°11'0 0.1
2016-Jan-25 04:32N 49°18' W 123°12'0 0.0
2016-Jan-25 03:32N 49°18' W 123°11'0 0.2
2016-Jan-25 02:32N 49°18' W 123°11'0 0.1
2016-Jan-25 01:32N 49°18' W 123°11'0 0.0
2016-Jan-25 00:32N 49°18' W 123°11'0 0.1
2016-Jan-24 23:32N 49°19' W 123°11'0 0.2
2016-Jan-24 22:32N 49°18' W 123°12'0 0.1
2016-Jan-24 21:32N 49°18' W 123°12'0 0.0
2016-Jan-24 20:32N 49°18' W 123°12'0 0.0
2016-Jan-24 19:32N 49°18' W 123°12'0 0.1
2016-Jan-24 18:29N 49°18' W 123°12'0 0.1
2016-Jan-24 17:32N 49°18' W 123°12'0 0.1
2016-Jan-24 16:32N 49°18' W 123°11'0 0.0
2016-Jan-24 15:32N 49°18' W 123°11'0 0.1
2016-Jan-24 14:32N 49°19' W 123°11'0 0.2
2016-Jan-24 13:32N 49°18' W 123°11'0 0.0
2016-Jan-24 12:32N 49°18' W 123°11'0 0.0
2016-Jan-24 11:32N 49°18' W 123°11'0 0.0
2016-Jan-24 10:32N 49°18' W 123°11'0 0.0
2016-Jan-24 09:32N 49°18' W 123°11'0 0.1
2016-Jan-24 08:32N 49°18' W 123°11'0 0.2
2016-Jan-24 07:32N 49°18' W 123°12'0 0.1
2016-Jan-24 06:32N 49°18' W 123°12'0 0.1
2016-Jan-24 05:32N 49°18' W 123°12'0 0.1
2016-Jan-24 04:32N 49°18' W 123°12'0 0.1
2016-Jan-24 03:32N 49°18' W 123°11'0 0.2
2016-Jan-24 02:32N 49°18' W 123°11'0 0.0
2016-Jan-24 01:32N 49°18' W 123°11'0 0.0
2016-Jan-24 00:32N 49°18' W 123°11'0 0.1
2016-Jan-23 23:32N 49°18' W 123°11'0 0.0
2016-Jan-23 22:32N 49°18' W 123°11'0 0.2
2016-Jan-23 21:32N 49°19' W 123°11'0 0.2
2016-Jan-23 20:32N 49°18' W 123°12'0 0.0
2016-Jan-23 19:32N 49°18' W 123°12'0 0.0
2016-Jan-23 18:32N 49°18' W 123°12'0 0.1
2016-Jan-23 17:32N 49°18' W 123°12'0 0.1
2016-Jan-23 16:32N 49°18' W 123°12'0 0.0
2016-Jan-23 15:32N 49°18' W 123°12'0 0.1
2016-Jan-23 14:29N 49°19' W 123°11'0 0.1
2016-Jan-23 13:32N 49°19' W 123°11'0 0.0
2016-Jan-23 12:32N 49°18' W 123°11'0 0.1
2016-Jan-23 11:32N 49°18' W 123°11'0 0.0
2016-Jan-23 10:32N 49°18' W 123°11'0 0.0
2016-Jan-23 09:32N 49°18' W 123°11'0 0.0
2016-Jan-23 08:32N 49°18' W 123°11'0 0.3
2016-Jan-23 07:32N 49°19' W 123°11'0 0.2
2016-Jan-23 06:32N 49°18' W 123°12'0 0.0
2016-Jan-23 05:32N 49°18' W 123°12'0 0.1
2016-Jan-23 04:32N 49°18' W 123°12'0 0.0
2016-Jan-23 03:32N 49°18' W 123°12'0 0.0
2016-Jan-23 02:32N 49°18' W 123°12'0 0.1
2016-Jan-23 01:32N 49°18' W 123°12'0 0.1
2016-Jan-23 00:32N 49°18' W 123°12'0 0.1
2016-Jan-22 23:32N 49°18' W 123°11'0 0.1
2016-Jan-22 22:32N 49°18' W 123°11'0 0.1
2016-Jan-22 21:32N 49°18' W 123°11'0 0.0
2016-Jan-22 20:32N 49°18' W 123°11'3 3.1
2016-Jan-22 19:34N 49°18' W 123°07'2 2.0
2016-Jan-22 18:32N 49°18' W 123°03'0 0.0
2016-Jan-22 17:32N 49°18' W 123°03'  

Dump ship's entire track history